sensor_id;sensor_type;location;lat;lon;timestamp;pressure;altitude;pressure_sealevel;temperature;humidity
13767;BME280;47980;48.794;9.176;2023-01-16T00:00:13;97121.72;;;4.16;74.84
13767;BME280;47980;48.794;9.176;2023-01-16T00:02:45;97112.16;;;4.20;75.29
13767;BME280;47980;48.794;9.176;2023-01-16T00:05:17;97109.41;;;4.34;73.82
13767;BME280;47980;48.794;9.176;2023-01-16T00:07:48;97102.31;;;4.43;73.51
13767;BME280;47980;48.794;9.176;2023-01-16T00:10:22;97102.31;;;4.43;72.94
13767;BME280;47980;48.794;9.176;2023-01-16T00:12:53;97096.56;;;4.50;72.51
13767;BME280;47980;48.794;9.176;2023-01-16T00:15:25;97103.22;;;4.56;72.94
13767;BME280;47980;48.794;9.176;2023-01-16T00:17:56;97106.31;;;4.67;72.38
13767;BME280;47980;48.794;9.176;2023-01-16T00:20:28;97090.84;;;4.74;71.33
13767;BME280;47980;48.794;9.176;2023-01-16T00:23:00;97076.19;;;4.73;72.00
13767;BME280;47980;48.794;9.176;2023-01-16T00:25:38;97069.38;;;4.72;71.64
13767;BME280;47980;48.794;9.176;2023-01-16T00:28:11;97062.75;;;4.66;71.48
13767;BME280;47980;48.794;9.176;2023-01-16T00:30:44;97059.97;;;4.62;71.06
13767;BME280;47980;48.794;9.176;2023-01-16T00:33:16;97059.03;;;4.67;71.67
13767;BME280;47980;48.794;9.176;2023-01-16T00:35:48;97059.97;;;4.62;72.38
13767;BME280;47980;48.794;9.176;2023-01-16T00:38:20;97052.53;;;4.64;71.84
13767;BME280;47980;48.794;9.176;2023-01-16T00:40:53;97048.34;;;4.72;71.55
13767;BME280;47980;48.794;9.176;2023-01-16T00:43:25;97046.66;;;4.76;71.57
13767;BME280;47980;48.794;9.176;2023-01-16T00:45:56;97044.47;;;4.78;70.19
13767;BME280;47980;48.794;9.176;2023-01-16T00:48:28;97041.56;;;4.79;70.81
13767;BME280;47980;48.794;9.176;2023-01-16T00:51:00;97030.13;;;4.75;71.36
13767;BME280;47980;48.794;9.176;2023-01-16T00:53:32;97020.41;;;4.67;72.41
13767;BME280;47980;48.794;9.176;2023-01-16T00:56:06;97018.25;;;4.61;71.48
13767;BME280;47980;48.794;9.176;2023-01-16T00:58:38;97022.13;;;4.54;73.14
13767;BME280;47980;48.794;9.176;2023-01-16T01:01:10;97009.31;;;4.53;72.79
13767;BME280;47980;48.794;9.176;2023-01-16T01:03:41;97009.31;;;4.53;71.48
13767;BME280;47980;48.794;9.176;2023-01-16T01:06:13;96997.59;;;4.50;71.95
13767;BME280;47980;48.794;9.176;2023-01-16T01:08:45;96990.78;;;4.49;72.53
13767;BME280;47980;48.794;9.176;2023-01-16T01:11:18;96995.44;;;4.44;72.29
13767;BME280;47980;48.794;9.176;2023-01-16T01:13:51;96981.25;;;4.36;72.64
13767;BME280;47980;48.794;9.176;2023-01-16T01:16:23;96977.09;;;4.26;73.80
13767;BME280;47980;48.794;9.176;2023-01-16T01:18:54;96966.59;;;4.18;73.27
13767;BME280;47980;48.794;9.176;2023-01-16T01:21:26;96971.34;;;4.24;72.98
13767;BME280;47980;48.794;9.176;2023-01-16T01:23:58;96967.34;;;4.27;72.78
13767;BME280;47980;48.794;9.176;2023-01-16T01:26:31;96968.88;;;4.37;72.02
13767;BME280;47980;48.794;9.176;2023-01-16T01:29:03;96963.63;;;4.28;72.02
13767;BME280;47980;48.794;9.176;2023-01-16T01:31:35;96966.25;;;4.37;71.79
13767;BME280;47980;48.794;9.176;2023-01-16T01:34:07;96962.88;;;4.36;71.40
13767;BME280;47980;48.794;9.176;2023-01-16T01:36:39;96967.19;;;4.41;72.66
13767;BME280;47980;48.794;9.176;2023-01-16T01:39:10;96952.38;;;4.27;72.40
13767;BME280;47980;48.794;9.176;2023-01-16T01:41:44;96957.31;;;4.29;72.79
13767;BME280;47980;48.794;9.176;2023-01-16T01:47:26;96944.00;;;4.43;71.63
13767;BME280;47980;48.794;9.176;2023-01-16T01:50:03;96954.81;;;4.41;72.58
13767;BME280;47980;48.794;9.176;2023-01-16T01:52:35;96937.69;;;4.35;72.70
13767;BME280;47980;48.794;9.176;2023-01-16T01:55:09;96924.25;;;4.28;73.02
13767;BME280;47980;48.794;9.176;2023-01-16T01:57:47;96924.47;;;4.14;73.57
13767;BME280;47980;48.794;9.176;2023-01-16T02:00:24;96911.34;;;4.14;73.66
13767;BME280;47980;48.794;9.176;2023-01-16T02:03:00;96899.09;;;4.27;72.42
13767;BME280;47980;48.794;9.176;2023-01-16T02:05:36;96895.09;;;4.29;73.26
13767;BME280;47980;48.794;9.176;2023-01-16T02:08:13;96885.97;;;4.27;72.11
13767;BME280;47980;48.794;9.176;2023-01-16T02:10:47;96879.34;;;4.29;72.04
13767;BME280;47980;48.794;9.176;2023-01-16T02:13:22;96868.25;;;4.24;72.76
13767;BME280;47980;48.794;9.176;2023-01-16T02:15:55;96854.81;;;4.25;72.76
13767;BME280;47980;48.794;9.176;2023-01-16T02:18:44;96838.47;;;4.20;72.88
13767;BME280;47980;48.794;9.176;2023-01-16T02:22:03;96830.44;;;4.16;73.17
13767;BME280;47980;48.794;9.176;2023-01-16T02:28:00;96815.38;;;4.04;74.14
13767;BME280;47980;48.794;9.176;2023-01-16T02:31:06;96807.19;;;3.97;74.26
13767;BME280;47980;48.794;9.176;2023-01-16T02:33:51;96803.34;;;4.03;74.25
13767;BME280;47980;48.794;9.176;2023-01-16T02:36:37;96792.63;;;4.17;73.72
13767;BME280;47980;48.794;9.176;2023-01-16T02:39:18;96788.50;;;4.07;73.60
13767;BME280;47980;48.794;9.176;2023-01-16T02:41:58;96775.34;;;4.16;73.14
13767;BME280;47980;48.794;9.176;2023-01-16T02:44:40;96777.63;;;4.26;73.54
13767;BME280;47980;48.794;9.176;2023-01-16T02:47:23;96764.16;;;4.28;73.02
13767;BME280;47980;48.794;9.176;2023-01-16T02:50:02;96766.84;;;4.49;71.20
13767;BME280;47980;48.794;9.176;2023-01-16T02:52:40;96755.91;;;4.47;71.90
13767;BME280;47980;48.794;9.176;2023-01-16T02:55:22;96750.56;;;4.34;72.20
13767;BME280;47980;48.794;9.176;2023-01-16T02:57:57;96731.13;;;4.27;73.23
13767;BME280;47980;48.794;9.176;2023-01-16T03:00:31;96722.72;;;4.13;73.66
13767;BME280;47980;48.794;9.176;2023-01-16T03:03:06;96714.22;;;4.16;74.38
13767;BME280;47980;48.794;9.176;2023-01-16T03:05:42;96710.16;;;4.27;72.78
13767;BME280;47980;48.794;9.176;2023-01-16T03:08:27;96696.59;;;4.25;73.73
13767;BME280;47980;48.794;9.176;2023-01-16T03:11:15;96679.34;;;4.15;73.50
13767;BME280;47980;48.794;9.176;2023-01-16T03:17:08;96670.78;;;4.27;72.69
13767;BME280;47980;48.794;9.176;2023-01-16T03:19:55;96668.53;;;4.17;73.89
13767;BME280;47980;48.794;9.176;2023-01-16T03:22:36;96658.88;;;4.29;73.19
13767;BME280;47980;48.794;9.176;2023-01-16T03:25:21;96662.13;;;4.26;73.30
13767;BME280;47980;48.794;9.176;2023-01-16T03:28:02;96658.63;;;4.22;73.15
13767;BME280;47980;48.794;9.176;2023-01-16T03:30:46;96647.75;;;4.32;72.56
13767;BME280;47980;48.794;9.176;2023-01-16T03:33:27;96637.75;;;4.26;72.40
13767;BME280;47980;48.794;9.176;2023-01-16T03:36:06;96630.25;;;4.16;72.43
13767;BME280;47980;48.794;9.176;2023-01-16T03:38:42;96621.63;;;4.15;73.30
13767;BME280;47980;48.794;9.176;2023-01-16T03:41:18;96624.53;;;4.14;74.46
13767;BME280;47980;48.794;9.176;2023-01-16T03:43:55;96623.59;;;4.18;72.95
13767;BME280;47980;48.794;9.176;2023-01-16T03:46:30;96615.47;;;4.11;72.90
13767;BME280;47980;48.794;9.176;2023-01-16T03:49:07;96611.56;;;3.96;74.45
13767;BME280;47980;48.794;9.176;2023-01-16T03:51:45;96603.84;;;3.91;74.07
13767;BME280;47980;48.794;9.176;2023-01-16T03:54:27;96591.25;;;3.84;74.88
13767;BME280;47980;48.794;9.176;2023-01-16T03:57:07;96575.84;;;3.83;75.83
13767;BME280;47980;48.794;9.176;2023-01-16T03:59:43;96580.47;;;3.77;76.12
13767;BME280;47980;48.794;9.176;2023-01-16T04:02:20;96563.69;;;3.78;76.93
13767;BME280;47980;48.794;9.176;2023-01-16T04:04:59;96562.25;;;3.60;76.77
13767;BME280;47980;48.794;9.176;2023-01-16T04:07:38;96554.25;;;3.56;77.36
13767;BME280;47980;48.794;9.176;2023-01-16T04:10:15;96542.72;;;3.49;77.30
13767;BME280;47980;48.794;9.176;2023-01-16T04:12:51;96538.59;;;3.39;78.60
13767;BME280;47980;48.794;9.176;2023-01-16T04:15:25;96541.38;;;3.43;78.19
13767;BME280;47980;48.794;9.176;2023-01-16T04:17:59;96530.28;;;3.37;78.25
13767;BME280;47980;48.794;9.176;2023-01-16T04:20:31;96517.81;;;3.34;78.93
13767;BME280;47980;48.794;9.176;2023-01-16T04:23:05;96501.94;;;3.30;78.92
13767;BME280;47980;48.794;9.176;2023-01-16T04:25:37;96500.69;;;3.36;78.05
13767;BME280;47980;48.794;9.176;2023-01-16T04:28:09;96492.06;;;3.36;78.63
13767;BME280;47980;48.794;9.176;2023-01-16T04:30:41;96480.06;;;3.35;77.50
13767;BME280;47980;48.794;9.176;2023-01-16T04:33:13;96487.59;;;3.36;77.86
13767;BME280;47980;48.794;9.176;2023-01-16T04:35:45;96471.44;;;3.34;78.50
13767;BME280;47980;48.794;9.176;2023-01-16T04:38:18;96472.06;;;3.31;79.31
13767;BME280;47980;48.794;9.176;2023-01-16T04:40:53;96448.47;;;3.31;78.87
13767;BME280;47980;48.794;9.176;2023-01-16T04:43:25;96448.63;;;3.35;78.12
13767;BME280;47980;48.794;9.176;2023-01-16T04:45:56;96433.19;;;3.33;78.73
13767;BME280;47980;48.794;9.176;2023-01-16T04:48:29;96416.72;;;3.33;77.58
13767;BME280;47980;48.794;9.176;2023-01-16T04:51:00;96418.50;;;3.41;78.32
13767;BME280;47980;48.794;9.176;2023-01-16T04:53:34;96402.13;;;3.44;78.24
13767;BME280;47980;48.794;9.176;2023-01-16T04:56:06;96389.28;;;3.30;77.47
13767;BME280;47980;48.794;9.176;2023-01-16T04:58:38;96383.94;;;3.27;78.61
13767;BME280;47980;48.794;9.176;2023-01-16T05:01:09;96376.50;;;3.29;77.64
13767;BME280;47980;48.794;9.176;2023-01-16T05:03:41;96374.88;;;3.45;76.56
13767;BME280;47980;48.794;9.176;2023-01-16T05:06:13;96366.41;;;3.40;76.46
13767;BME280;47980;48.794;9.176;2023-01-16T05:08:46;96360.66;;;3.46;76.45
13767;BME280;47980;48.794;9.176;2023-01-16T05:11:18;96354.97;;;3.44;76.86
13767;BME280;47980;48.794;9.176;2023-01-16T05:13:50;96339.19;;;3.11;79.08
13767;BME280;47980;48.794;9.176;2023-01-16T05:16:22;96340.59;;;3.08;79.84
13767;BME280;47980;48.794;9.176;2023-01-16T05:18:54;96337.41;;;3.03;79.53
13767;BME280;47980;48.794;9.176;2023-01-16T05:21:26;96323.09;;;3.00;80.13
13767;BME280;47980;48.794;9.176;2023-01-16T05:23:59;96315.81;;;3.27;78.18
13767;BME280;47980;48.794;9.176;2023-01-16T05:26:32;96307.38;;;3.21;78.97
13767;BME280;47980;48.794;9.176;2023-01-16T05:29:04;96302.94;;;3.34;77.73
13767;BME280;47980;48.794;9.176;2023-01-16T05:31:36;96293.63;;;3.45;76.47
13767;BME280;47980;48.794;9.176;2023-01-16T05:34:08;96296.44;;;3.40;77.06
13767;BME280;47980;48.794;9.176;2023-01-16T05:36:39;96286.94;;;3.48;76.28
13767;BME280;47980;48.794;9.176;2023-01-16T05:39:13;96279.84;;;3.48;77.16
13767;BME280;47980;48.794;9.176;2023-01-16T05:41:45;96264.97;;;3.40;76.67
13767;BME280;47980;48.794;9.176;2023-01-16T05:44:16;96257.41;;;3.26;77.06
13767;BME280;47980;48.794;9.176;2023-01-16T05:46:49;96264.31;;;3.31;78.17
13767;BME280;47980;48.794;9.176;2023-01-16T05:49:21;96245.47;;;3.50;76.54
13767;BME280;47980;48.794;9.176;2023-01-16T05:51:53;96232.00;;;3.39;76.85
13767;BME280;47980;48.794;9.176;2023-01-16T05:54:26;96230.91;;;3.28;77.98
13767;BME280;47980;48.794;9.176;2023-01-16T05:56:58;96211.09;;;3.18;78.06
13767;BME280;47980;48.794;9.176;2023-01-16T05:59:30;96204.47;;;3.21;77.19
13767;BME280;47980;48.794;9.176;2023-01-16T06:02:01;96203.19;;;3.27;77.58
13767;BME280;47980;48.794;9.176;2023-01-16T06:04:41;96193.34;;;3.24;76.90
13767;BME280;47980;48.794;9.176;2023-01-16T06:07:13;96189.97;;;3.48;76.57
13767;BME280;47980;48.794;9.176;2023-01-16T06:09:46;96171.56;;;3.11;78.43
13767;BME280;47980;48.794;9.176;2023-01-16T06:12:19;96177.44;;;3.08;79.43
13767;BME280;47980;48.794;9.176;2023-01-16T06:14:51;96166.97;;;3.08;80.24
13767;BME280;47980;48.794;9.176;2023-01-16T06:17:24;96160.78;;;3.12;80.37
13767;BME280;47980;48.794;9.176;2023-01-16T06:19:55;96153.25;;;3.11;81.63
13767;BME280;47980;48.794;9.176;2023-01-16T06:22:29;96139.75;;;3.33;78.24
13767;BME280;47980;48.794;9.176;2023-01-16T06:25:03;96131.22;;;3.36;78.55
13767;BME280;47980;48.794;9.176;2023-01-16T06:27:34;96119.13;;;3.56;77.14
13767;BME280;47980;48.794;9.176;2023-01-16T06:30:07;96109.63;;;3.76;75.17
13767;BME280;47980;48.794;9.176;2023-01-16T06:32:39;96109.41;;;3.81;75.04
13767;BME280;47980;48.794;9.176;2023-01-16T06:35:11;96102.38;;;3.98;73.47
13767;BME280;47980;48.794;9.176;2023-01-16T06:37:42;96096.25;;;3.94;74.11
13767;BME280;47980;48.794;9.176;2023-01-16T06:40:16;96085.44;;;3.95;75.66
13767;BME280;47980;48.794;9.176;2023-01-16T06:42:49;96086.63;;;3.98;74.64
13767;BME280;47980;48.794;9.176;2023-01-16T06:45:25;96076.69;;;3.91;75.32
13767;BME280;47980;48.794;9.176;2023-01-16T06:47:57;96070.38;;;3.92;75.45
13767;BME280;47980;48.794;9.176;2023-01-16T06:50:28;96058.25;;;3.88;75.69
13767;BME280;47980;48.794;9.176;2023-01-16T06:53:00;96058.47;;;3.82;75.67
13767;BME280;47980;48.794;9.176;2023-01-16T06:55:39;96055.06;;;3.94;76.04
13767;BME280;47980;48.794;9.176;2023-01-16T06:58:11;96053.53;;;3.93;75.92
13767;BME280;47980;48.794;9.176;2023-01-16T07:00:43;96054.44;;;3.85;76.24
13767;BME280;47980;48.794;9.176;2023-01-16T07:03:14;96036.41;;;3.83;75.53
13767;BME280;47980;48.794;9.176;2023-01-16T07:05:55;96029.69;;;3.98;75.03
13767;BME280;47980;48.794;9.176;2023-01-16T07:08:26;96025.09;;;4.07;74.59
13767;BME280;47980;48.794;9.176;2023-01-16T07:11:15;96029.22;;;4.08;74.30
13767;BME280;47980;48.794;9.176;2023-01-16T07:14:31;96013.34;;;4.17;72.10
13767;BME280;47980;48.794;9.176;2023-01-16T07:17:19;96008.88;;;4.18;72.54
13767;BME280;47980;48.794;9.176;2023-01-16T07:20:09;96012.69;;;4.20;72.47
13767;BME280;47980;48.794;9.176;2023-01-16T07:22:59;96002.94;;;4.21;71.44
13767;BME280;47980;48.794;9.176;2023-01-16T07:25:33;95992.41;;;4.33;71.03
13767;BME280;47980;48.794;9.176;2023-01-16T07:28:07;95990.19;;;4.35;71.10
13767;BME280;47980;48.794;9.176;2023-01-16T07:30:39;95989.97;;;4.40;71.12
13767;BME280;47980;48.794;9.176;2023-01-16T07:33:11;95978.53;;;4.48;69.82
13767;BME280;47980;48.794;9.176;2023-01-16T07:35:42;95974.66;;;4.58;70.33
13767;BME280;47980;48.794;9.176;2023-01-16T07:38:15;95973.72;;;4.66;69.57
13767;BME280;47980;48.794;9.176;2023-01-16T07:40:47;95974.13;;;4.68;69.47
13767;BME280;47980;48.794;9.176;2023-01-16T07:43:20;95959.66;;;4.74;69.09
13767;BME280;47980;48.794;9.176;2023-01-16T07:45:51;95960.94;;;4.80;68.46
13767;BME280;47980;48.794;9.176;2023-01-16T07:48:23;95960.41;;;4.75;68.90
13767;BME280;47980;48.794;9.176;2023-01-16T07:50:56;95958.63;;;4.79;68.09
13767;BME280;47980;48.794;9.176;2023-01-16T07:53:29;95943.66;;;4.79;68.21
13767;BME280;47980;48.794;9.176;2023-01-16T07:56:01;95936.53;;;4.80;68.11
13767;BME280;47980;48.794;9.176;2023-01-16T07:58:34;95926.44;;;4.82;67.39
13767;BME280;47980;48.794;9.176;2023-01-16T08:01:08;95926.53;;;4.86;67.58
13767;BME280;47980;48.794;9.176;2023-01-16T08:03:40;95915.69;;;4.87;67.93
13767;BME280;47980;48.794;9.176;2023-01-16T08:06:11;95915.03;;;4.90;68.23
13767;BME280;47980;48.794;9.176;2023-01-16T08:08:43;95902.22;;;4.89;67.87
13767;BME280;47980;48.794;9.176;2023-01-16T08:11:15;95896.34;;;4.95;66.74
13767;BME280;47980;48.794;9.176;2023-01-16T08:14:06;95898.03;;;5.03;66.86
13767;BME280;47980;48.794;9.176;2023-01-16T08:16:38;95887.28;;;4.93;67.50
13767;BME280;47980;48.794;9.176;2023-01-16T08:19:10;95883.91;;;4.92;67.17
13767;BME280;47980;48.794;9.176;2023-01-16T08:21:41;95872.44;;;5.00;66.88
13767;BME280;47980;48.794;9.176;2023-01-16T08:24:13;95880.06;;;5.05;65.71
13767;BME280;47980;48.794;9.176;2023-01-16T08:26:45;95870.72;;;5.08;65.93
13767;BME280;47980;48.794;9.176;2023-01-16T08:29:18;95864.94;;;5.18;64.95
13767;BME280;47980;48.794;9.176;2023-01-16T08:31:49;95865.75;;;5.22;65.38
13767;BME280;47980;48.794;9.176;2023-01-16T08:34:21;95866.25;;;5.28;64.52
13767;BME280;47980;48.794;9.176;2023-01-16T08:36:52;95853.44;;;5.26;63.99
13767;BME280;47980;48.794;9.176;2023-01-16T08:39:24;95847.50;;;5.29;64.55
13767;BME280;47980;48.794;9.176;2023-01-16T08:41:57;95853.59;;;5.34;63.80
13767;BME280;47980;48.794;9.176;2023-01-16T08:44:48;95844.19;;;5.52;62.28
13767;BME280;47980;48.794;9.176;2023-01-16T08:47:37;95834.22;;;5.22;62.40
13767;BME280;47980;48.794;9.176;2023-01-16T08:50:26;95835.00;;;5.42;62.42
13767;BME280;47980;48.794;9.176;2023-01-16T08:53:21;95831.06;;;5.52;62.00
13767;BME280;47980;48.794;9.176;2023-01-16T08:55:52;95838.09;;;5.67;62.19
13767;BME280;47980;48.794;9.176;2023-01-16T08:58:24;95840.16;;;5.58;60.71
13767;BME280;47980;48.794;9.176;2023-01-16T09:00:57;95835.53;;;5.71;61.85
13767;BME280;47980;48.794;9.176;2023-01-16T09:12:16;95840.16;;;5.77;61.16
13767;BME280;47980;48.794;9.176;2023-01-16T09:22:11;95878.06;;;5.76;59.63
13767;BME280;47980;48.794;9.176;2023-01-16T09:34:52;95847.06;;;5.86;59.13
13767;BME280;47980;48.794;9.176;2023-01-16T09:37:25;95830.66;;;5.92;58.97
13767;BME280;47980;48.794;9.176;2023-01-16T09:39:56;95830.78;;;5.99;59.70
13767;BME280;47980;48.794;9.176;2023-01-16T09:42:35;95818.72;;;5.98;58.03
13767;BME280;47980;48.794;9.176;2023-01-16T09:45:29;95814.22;;;6.22;58.75
13767;BME280;47980;48.794;9.176;2023-01-16T09:48:04;95806.88;;;6.35;57.11
13767;BME280;47980;48.794;9.176;2023-01-16T09:50:43;95798.59;;;6.59;58.04
13767;BME280;47980;48.794;9.176;2023-01-16T09:53:28;95801.69;;;6.65;55.63
13767;BME280;47980;48.794;9.176;2023-01-16T09:56:24;95798.59;;;6.59;56.47
13767;BME280;47980;48.794;9.176;2023-01-16T09:59:21;95799.94;;;6.49;55.97
13767;BME280;47980;48.794;9.176;2023-01-16T10:02:05;95793.13;;;6.45;55.50
13767;BME280;47980;48.794;9.176;2023-01-16T10:04:39;95782.19;;;6.43;56.51
13767;BME280;47980;48.794;9.176;2023-01-16T10:07:38;95781.56;;;6.53;55.76
13767;BME280;47980;48.794;9.176;2023-01-16T10:10:36;95757.47;;;6.51;55.09
13767;BME280;47980;48.794;9.176;2023-01-16T10:13:46;95759.00;;;6.52;54.09
13767;BME280;47980;48.794;9.176;2023-01-16T10:16:27;95744.78;;;6.60;54.99
13767;BME280;47980;48.794;9.176;2023-01-16T10:19:07;95742.91;;;6.61;54.25
13767;BME280;47980;48.794;9.176;2023-01-16T10:22:10;95735.34;;;6.56;53.92
13767;BME280;47980;48.794;9.176;2023-01-16T10:24:53;95730.72;;;6.49;53.83
13767;BME280;47980;48.794;9.176;2023-01-16T10:30:50;95721.84;;;6.61;52.79
13767;BME280;47980;48.794;9.176;2023-01-16T10:33:29;95715.16;;;6.67;53.62
13767;BME280;47980;48.794;9.176;2023-01-16T10:36:03;95719.00;;;6.73;53.02
13767;BME280;47980;48.794;9.176;2023-01-16T10:38:39;95708.38;;;6.66;52.68
13767;BME280;47980;48.794;9.176;2023-01-16T10:41:17;95705.38;;;6.67;53.86
13767;BME280;47980;48.794;9.176;2023-01-16T10:44:17;95708.56;;;6.80;52.31
13767;BME280;47980;48.794;9.176;2023-01-16T10:47:10;95706.31;;;6.82;52.95
13767;BME280;47980;48.794;9.176;2023-01-16T10:50:00;95690.16;;;6.84;52.87
13767;BME280;47980;48.794;9.176;2023-01-16T10:52:32;95686.81;;;6.87;53.31
13767;BME280;47980;48.794;9.176;2023-01-16T10:55:07;95676.72;;;6.96;54.46
13767;BME280;47980;48.794;9.176;2023-01-16T10:57:43;95677.22;;;7.05;53.93
13767;BME280;47980;48.794;9.176;2023-01-16T11:00:19;95662.00;;;6.91;55.14
13767;BME280;47980;48.794;9.176;2023-01-16T11:03:17;95662.50;;;7.04;54.06
13767;BME280;47980;48.794;9.176;2023-01-16T11:06:06;95662.19;;;7.09;54.23
13767;BME280;47980;48.794;9.176;2023-01-16T11:08:39;95652.31;;;7.03;55.98
13767;BME280;47980;48.794;9.176;2023-01-16T11:11:13;95646.44;;;7.16;56.36
13767;BME280;47980;48.794;9.176;2023-01-16T11:13:59;95640.84;;;7.25;55.99
13767;BME280;47980;48.794;9.176;2023-01-16T11:16:49;95626.72;;;7.03;54.79
13767;BME280;47980;48.794;9.176;2023-01-16T11:19:43;95630.31;;;7.25;55.92
13767;BME280;47980;48.794;9.176;2023-01-16T11:22:23;95618.53;;;7.12;56.95
13767;BME280;47980;48.794;9.176;2023-01-16T11:24:57;95607.78;;;7.35;58.81
13767;BME280;47980;48.794;9.176;2023-01-16T11:27:34;95607.84;;;7.42;59.03
13767;BME280;47980;48.794;9.176;2023-01-16T11:30:16;95597.69;;;7.47;58.77
13767;BME280;47980;48.794;9.176;2023-01-16T11:32:49;95585.31;;;7.52;59.68
13767;BME280;47980;48.794;9.176;2023-01-16T11:35:31;95576.56;;;7.44;60.40
13767;BME280;47980;48.794;9.176;2023-01-16T11:38:05;95573.19;;;7.43;61.44
13767;BME280;47980;48.794;9.176;2023-01-16T11:40:45;95577.34;;;7.44;60.54
13767;BME280;47980;48.794;9.176;2023-01-16T11:43:22;95555.31;;;7.19;61.35
13767;BME280;47980;48.794;9.176;2023-01-16T11:46:30;95536.56;;;7.31;61.30
13767;BME280;47980;48.794;9.176;2023-01-16T11:49:04;95525.38;;;7.48;60.69
13767;BME280;47980;48.794;9.176;2023-01-16T11:51:49;95521.63;;;7.50;61.49
13767;BME280;47980;48.794;9.176;2023-01-16T11:54:25;95514.91;;;7.63;60.21
13767;BME280;47980;48.794;9.176;2023-01-16T11:57:09;95501.31;;;7.57;59.48
13767;BME280;47980;48.794;9.176;2023-01-16T11:59:57;95496.88;;;7.79;59.97
13767;BME280;47980;48.794;9.176;2023-01-16T12:02:56;95494.91;;;7.58;60.27
13767;BME280;47980;48.794;9.176;2023-01-16T12:05:38;95481.34;;;7.56;60.05
13767;BME280;47980;48.794;9.176;2023-01-16T12:08:44;95480.69;;;7.74;59.70
13767;BME280;47980;48.794;9.176;2023-01-16T12:11:29;95470.06;;;7.59;61.63
13767;BME280;47980;48.794;9.176;2023-01-16T12:14:10;95454.91;;;7.45;61.85
13767;BME280;47980;48.794;9.176;2023-01-16T12:17:09;95457.50;;;7.38;62.24
13767;BME280;47980;48.794;9.176;2023-01-16T12:19:57;95447.38;;;7.51;62.43
13767;BME280;47980;48.794;9.176;2023-01-16T12:22:46;95442.63;;;7.82;62.01
13767;BME280;47980;48.794;9.176;2023-01-16T12:25:34;95439.09;;;7.49;63.51
13767;BME280;47980;48.794;9.176;2023-01-16T12:28:15;95431.56;;;7.51;62.12
13767;BME280;47980;48.794;9.176;2023-01-16T12:31:02;95413.19;;;7.72;62.66
13767;BME280;47980;48.794;9.176;2023-01-16T12:33:55;95413.19;;;7.76;61.89
13767;BME280;47980;48.794;9.176;2023-01-16T12:36:40;95409.75;;;7.61;63.31
13767;BME280;47980;48.794;9.176;2023-01-16T12:39:21;95398.91;;;7.81;62.77
13767;BME280;47980;48.794;9.176;2023-01-16T12:42:03;95392.13;;;7.90;62.28
13767;BME280;47980;48.794;9.176;2023-01-16T12:45:07;95395.16;;;7.96;61.92
13767;BME280;47980;48.794;9.176;2023-01-16T12:48:03;95383.84;;;7.95;62.51
13767;BME280;47980;48.794;9.176;2023-01-16T12:50:53;95377.81;;;8.16;60.60
13767;BME280;47980;48.794;9.176;2023-01-16T12:53:43;95366.91;;;8.07;61.62
13767;BME280;47980;48.794;9.176;2023-01-16T12:56:30;95350.31;;;8.07;62.27
13767;BME280;47980;48.794;9.176;2023-01-16T12:59:15;95343.50;;;8.20;61.05
13767;BME280;47980;48.794;9.176;2023-01-16T13:01:52;95347.28;;;8.26;61.80
13767;BME280;47980;48.794;9.176;2023-01-16T13:04:30;95337.47;;;8.19;60.77
13767;BME280;47980;48.794;9.176;2023-01-16T13:07:06;95329.56;;;8.12;61.19
13767;BME280;47980;48.794;9.176;2023-01-16T13:09:46;95326.91;;;8.16;61.49
13767;BME280;47980;48.794;9.176;2023-01-16T13:12:23;95325.03;;;8.16;60.78
13767;BME280;47980;48.794;9.176;2023-01-16T13:15:18;95308.81;;;8.22;60.98
13767;BME280;47980;48.794;9.176;2023-01-16T13:17:56;95309.97;;;8.17;61.21
13767;BME280;47980;48.794;9.176;2023-01-16T13:20:30;95316.34;;;8.19;61.58
13767;BME280;47980;48.794;9.176;2023-01-16T13:23:06;95301.66;;;8.18;60.90
13767;BME280;47980;48.794;9.176;2023-01-16T13:25:44;95287.31;;;8.16;61.10
13767;BME280;47980;48.794;9.176;2023-01-16T13:28:23;95294.50;;;8.44;61.08
13767;BME280;47980;48.794;9.176;2023-01-16T13:31:03;95294.47;;;8.23;61.52
13767;BME280;47980;48.794;9.176;2023-01-16T13:33:41;95294.88;;;8.42;60.93
13767;BME280;47980;48.794;9.176;2023-01-16T13:36:27;95275.25;;;8.51;60.65
13767;BME280;47980;48.794;9.176;2023-01-16T13:39:14;95270.66;;;8.69;60.12
13767;BME280;47980;48.794;9.176;2023-01-16T13:41:50;95265.00;;;8.67;58.95
13767;BME280;47980;48.794;9.176;2023-01-16T13:44:25;95261.25;;;8.61;59.41
13767;BME280;47980;48.794;9.176;2023-01-16T13:47:19;95257.44;;;8.73;58.71
13767;BME280;47980;48.794;9.176;2023-01-16T13:49:54;95245.69;;;8.88;58.50
13767;BME280;47980;48.794;9.176;2023-01-16T13:52:27;95250.72;;;8.47;58.01
13767;BME280;47980;48.794;9.176;2023-01-16T13:55:01;95258.97;;;8.56;59.00
13767;BME280;47980;48.794;9.176;2023-01-16T13:57:36;95242.41;;;8.52;57.83
13767;BME280;47980;48.794;9.176;2023-01-16T14:00:11;95254.44;;;8.60;58.40
13767;BME280;47980;48.794;9.176;2023-01-16T14:02:46;95245.41;;;8.54;58.50
13767;BME280;47980;48.794;9.176;2023-01-16T14:05:47;95258.25;;;8.52;58.33
13767;BME280;47980;48.794;9.176;2023-01-16T14:08:26;95242.78;;;8.32;59.55
13767;BME280;47980;48.794;9.176;2023-01-16T14:11:27;95252.94;;;8.59;58.52
13767;BME280;47980;48.794;9.176;2023-01-16T14:14:27;95247.31;;;8.50;58.15
13767;BME280;47980;48.794;9.176;2023-01-16T14:17:19;95242.03;;;8.32;58.16
13767;BME280;47980;48.794;9.176;2023-01-16T14:19:58;95240.50;;;8.34;58.48
13767;BME280;47980;48.794;9.176;2023-01-16T14:22:35;95230.72;;;8.38;58.02
13767;BME280;47980;48.794;9.176;2023-01-16T14:25:27;95246.94;;;8.26;58.89
13767;BME280;47980;48.794;9.176;2023-01-16T14:28:00;95225.84;;;7.97;59.78
13767;BME280;47980;48.794;9.176;2023-01-16T14:30:32;95218.31;;;8.10;60.22
13767;BME280;47980;48.794;9.176;2023-01-16T14:33:05;95221.72;;;7.86;61.22
13767;BME280;47980;48.794;9.176;2023-01-16T14:35:44;95224.34;;;7.68;62.86
13767;BME280;47980;48.794;9.176;2023-01-16T14:38:20;95213.81;;;7.68;62.06
13767;BME280;47980;48.794;9.176;2023-01-16T14:40:55;95213.44;;;7.52;62.40
13767;BME280;47980;48.794;9.176;2023-01-16T14:44:10;95182.53;;;7.52;63.00
13767;BME280;47980;48.794;9.176;2023-01-16T14:47:23;95184.00;;;7.24;64.17